Time;durP1;ratioP1;P1;durP2;ratioP2;P2;SDS_P1;SDS_P2;PMS_P1;PMS_P2;Temp;Humidity;BMP_temperature;BMP_pressure;BME280_temperature;BME280_humidity;BME280_pressure;Samples;Min_cycle;Max_cycle;Signal;HPM_P1;HPM_P2
2023/03/09 00:00:43;;;;;;;2.97;1.30;;;;;;;7.48;99.08;94156.63;5077099;28;20048;-74
2023/03/09 00:03:15;;;;;;;2.55;1.33;;;;;;;7.48;99.13;94153.13;5075197;28;20625;-74
2023/03/09 00:05:42;;;;;;;2.05;0.95;;;;;;;7.56;97.52;94155.63;5075261;28;20044;-74
2023/03/09 00:08:08;;;;;;;3.22;1.20;;;;;;;7.67;96.57;94157.78;5072382;28;20090;-73
2023/03/09 00:10:35;;;;;;;1.98;1.02;;;;;;;7.78;95.21;94154.22;5071511;28;20040;-74
2023/03/09 00:13:01;;;;;;;2.30;1.05;;;;;;;7.98;93.17;94152.28;5071653;28;20566;-74
2023/03/09 00:15:28;;;;;;;2.38;1.15;;;;;;;8.01;92.97;94158.94;5071964;28;20412;-73
2023/03/09 00:17:54;;;;;;;2.33;1.08;;;;;;;8.07;92.53;94154.81;5071626;28;20450;-74
2023/03/09 00:20:24;;;;;;;1.90;0.80;;;;;;;8.11;92.57;94159.16;5071409;28;20049;-73
2023/03/09 00:22:52;;;;;;;4.13;1.23;;;;;;;8.20;91.34;94158.19;5071970;28;20043;-74
2023/03/09 00:25:18;;;;;;;1.65;0.85;;;;;;;8.28;91.24;94160.66;5071356;28;20090;-74
2023/03/09 00:27:48;;;;;;;1.90;0.88;;;;;;;8.33;90.76;94146.03;5071594;28;20048;-74
2023/03/09 00:30:15;;;;;;;2.90;1.27;;;;;;;8.22;91.38;94145.84;5071408;28;20037;-73
2023/03/09 00:32:42;;;;;;;2.47;1.08;;;;;;;8.22;91.07;94153.19;5071255;28;20051;-74
2023/03/09 00:35:09;;;;;;;2.05;1.00;;;;;;;8.25;91.05;94157.91;5070680;28;20098;-74
2023/03/09 00:37:38;;;;;;;2.78;1.05;;;;;;;8.33;90.19;94151.47;5071620;28;20051;-73
2023/03/09 00:40:09;;;;;;;2.50;1.20;;;;;;;8.46;89.72;94158.38;5071182;28;20086;-73
2023/03/09 00:42:36;;;;;;;4.18;1.25;;;;;;;8.49;91.87;94149.50;5071633;28;20045;-73
2023/03/09 00:45:03;;;;;;;4.95;1.20;;;;;;;8.54;91.77;94145.72;5071307;28;20049;-73
2023/03/09 00:47:30;;;;;;;3.67;1.00;;;;;;;8.65;90.12;94140.47;5070888;28;20044;-73
2023/03/09 00:49:56;;;;;;;3.63;1.20;;;;;;;8.69;90.66;94138.63;5071405;28;20040;-73
2023/03/09 00:52:23;;;;;;;3.15;1.00;;;;;;;8.90;88.28;94141.72;5071059;28;20049;-73
2023/03/09 00:54:53;;;;;;;1.60;0.90;;;;;;;9.12;85.79;94132.78;5070548;28;20051;-72
2023/03/09 00:57:19;;;;;;;2.10;1.00;;;;;;;9.21;85.42;94129.84;5070134;28;20044;-73
2023/03/09 00:59:46;;;;;;;1.63;0.80;;;;;;;9.20;85.57;94124.78;5070756;28;20055;-72
2023/03/09 01:02:12;;;;;;;1.35;0.63;;;;;;;9.28;84.60;94113.66;5069897;28;20522;-72
2023/03/09 01:04:39;;;;;;;1.90;0.80;;;;;;;9.39;83.51;94125.47;5070193;28;20049;-73
2023/03/09 01:07:06;;;;;;;3.30;0.90;;;;;;;9.45;83.09;94120.53;5068922;28;20532;-73
2023/03/09 01:09:32;;;;;;;4.50;0.80;;;;;;;9.52;82.80;94117.13;5069762;28;20041;-73
2023/03/09 01:12:00;;;;;;;2.47;0.82;;;;;;;9.40;83.48;94120.84;5069799;28;20048;-73
2023/03/09 01:14:27;;;;;;;1.42;0.77;;;;;;;9.33;83.14;94126.94;5050640;28;20183;-73
2023/03/09 01:16:53;;;;;;;2.10;0.77;;;;;;;9.27;82.83;94111.31;5050611;28;20044;-72
2023/03/09 01:19:19;;;;;;;1.42;0.70;;;;;;;9.40;80.96;94120.84;5050001;28;20052;-72
2023/03/09 01:21:46;;;;;;;1.77;0.50;;;;;;;9.68;78.02;94125.91;5050599;28;20110;-72
2023/03/09 01:24:12;;;;;;;1.88;0.65;;;;;;;9.69;77.74;94103.00;5050054;28;20045;-73
2023/03/09 01:26:39;;;;;;;1.13;0.30;;;;;;;9.67;77.80;94114.25;5049992;28;20048;-72
2023/03/09 01:29:07;;;;;;;1.75;0.60;;;;;;;9.87;76.00;94108.72;5050102;28;20087;-72
2023/03/09 01:31:33;;;;;;;0.75;0.50;;;;;;;9.83;76.11;94116.03;5050026;28;20048;-72
2023/03/09 01:34:00;;;;;;;1.45;0.40;;;;;;;9.88;75.25;94113.00;5049659;28;20045;-74
2023/03/09 01:36:26;;;;;;;1.63;0.43;;;;;;;9.96;75.08;94117.34;5049718;28;20045;-72
2023/03/09 01:38:52;;;;;;;1.00;0.40;;;;;;;9.97;75.25;94110.78;5050217;28;20041;-74
2023/03/09 01:41:21;;;;;;;1.45;0.35;;;;;;;9.96;74.12;94102.97;5049580;28;20044;-72
2023/03/09 01:43:48;;;;;;;1.05;0.40;;;;;;;9.94;74.34;94087.84;5050314;28;20557;-73
2023/03/09 01:46:29;;;;;;;0.85;0.50;;;;;;;9.87;74.68;94086.97;5049314;28;20045;-73
2023/03/09 01:49:01;;;;;;;0.50;0.40;;;;;;;9.94;73.64;94089.78;5049955;28;20048;-72
2023/03/09 01:51:32;;;;;;;0.95;0.50;;;;;;;9.90;73.29;94078.84;5069917;28;20045;-72
2023/03/09 01:54:01;;;;;;;2.58;0.73;;;;;;;10.00;72.62;94085.56;5070143;28;20094;-72
2023/03/09 01:56:30;;;;;;;0.95;0.40;;;;;;;10.07;72.24;94077.50;5069990;28;20041;-72
2023/03/09 01:59:00;;;;;;;0.93;0.25;;;;;;;10.15;71.05;94081.88;5070078;28;20044;-72
2023/03/09 02:01:28;;;;;;;0.40;0.32;;;;;;;10.38;69.11;94086.44;5069731;28;20059;-72
2023/03/09 02:04:01;;;;;;;0.45;0.25;;;;;;;10.50;68.29;94075.31;5069331;28;20396;-72
2023/03/09 02:06:28;;;;;;;2.72;0.40;;;;;;;10.50;68.11;94058.22;5049201;28;20119;-71
2023/03/09 02:09:04;;;;;;;0.40;0.20;;;;;;;10.79;65.80;94089.19;5049404;28;20041;-72
2023/03/09 02:11:32;;;;;;;0.15;0.13;;;;;;;10.76;66.16;94082.56;5049762;28;20041;-72
2023/03/09 02:13:59;;;;;;;0.50;0.30;;;;;;;10.77;65.52;94064.31;5049965;28;20045;-72
2023/03/09 02:16:28;;;;;;;0.15;0.15;;;;;;;10.81;65.18;94065.91;5051977;28;20044;-71
2023/03/09 02:18:54;;;;;;;0.20;0.20;;;;;;;10.93;64.64;94064.84;5069695;28;20567;-72
2023/03/09 02:21:31;;;;;;;0.82;0.40;;;;;;;10.93;64.72;94083.91;5068931;28;20381;-72
2023/03/09 02:24:06;;;;;;;0.95;0.22;;;;;;;10.92;65.16;94066.00;5069354;28;20515;-71
2023/03/09 02:26:37;;;;;;;0.20;0.20;;;;;;;10.89;65.33;94075.69;5069716;28;20051;-71
2023/03/09 02:29:05;;;;;;;0.13;0.13;;;;;;;10.94;64.54;94058.22;5069454;28;20036;-72
2023/03/09 02:31:31;;;;;;;1.05;0.25;;;;;;;10.92;65.80;94098.66;5067067;28;20396;-72
2023/03/09 02:33:58;;;;;;;0.47;0.30;;;;;;;10.53;70.85;94158.91;5069687;28;20044;-71
2023/03/09 02:36:25;;;;;;;0.68;0.40;;;;;;;9.74;77.32;94115.50;5069334;28;20427;-72
2023/03/09 02:38:52;;;;;;;0.50;0.20;;;;;;;9.52;79.73;94136.94;5070450;28;20041;-71
2023/03/09 02:41:20;;;;;;;0.40;0.30;;;;;;;9.47;78.96;94118.22;5070153;28;20407;-72
2023/03/09 02:43:50;;;;;;;0.88;0.30;;;;;;;9.63;78.19;94140.59;5072406;28;20041;-71
2023/03/09 02:46:18;;;;;;;0.73;0.20;;;;;;;9.55;79.52;94144.38;5069638;28;20541;-72
2023/03/09 02:48:45;;;;;;;1.08;0.35;;;;;;;9.20;84.77;94150.00;5073701;28;20476;-72
2023/03/09 02:51:11;;;;;;;3.55;0.60;;;;;;;8.97;89.03;94212.41;5071882;28;20040;-74
2023/03/09 02:53:38;;;;;;;1.90;0.68;;;;;;;8.28;91.88;94230.38;5070155;28;20045;-75
2023/03/09 02:56:05;;;;;;;3.58;0.85;;;;;;;7.96;92.79;94219.63;5070078;28;20501;-75
2023/03/09 02:58:31;;;;;;;3.65;0.80;;;;;;;7.77;94.84;94227.69;5070783;28;20041;-74
2023/03/09 03:00:58;;;;;;;2.80;0.73;;;;;;;7.60;96.21;94218.00;5069816;28;20094;-75
2023/03/09 03:03:26;;;;;;;4.25;1.13;;;;;;;7.42;97.11;94206.75;5068971;28;20044;-75
2023/03/09 03:05:52;;;;;;;3.08;0.60;;;;;;;7.48;95.33;94210.78;5068690;28;20044;-75
2023/03/09 03:08:19;;;;;;;3.45;0.50;;;;;;;7.37;96.33;94247.63;5068485;28;20506;-76
2023/03/09 03:10:45;;;;;;;1.80;0.50;;;;;;;7.10;98.56;94194.34;5069538;28;20495;-76
2023/03/09 03:13:12;;;;;;;1.30;0.50;;;;;;;7.01;97.47;94203.44;5067764;28;20044;-75
2023/03/09 03:15:38;;;;;;;1.20;0.40;;;;;;;7.07;95.49;94212.06;5069178;28;20052;-76
2023/03/09 03:18:05;;;;;;;2.15;0.40;;;;;;;7.21;94.34;94241.44;5068815;28;20049;-77
2023/03/09 03:20:33;;;;;;;1.55;0.60;;;;;;;7.20;94.49;94243.31;5073231;28;20048;-75
2023/03/09 03:22:59;;;;;;;3.47;0.40;;;;;;;7.32;93.80;94221.63;5072518;28;20041;-76
2023/03/09 03:25:26;;;;;;;1.45;0.40;;;;;;;7.28;94.29;94201.00;5072022;28;20094;-75
2023/03/09 03:27:52;;;;;;;0.43;0.38;;;;;;;7.20;95.72;94212.75;5072989;28;20040;-75
2023/03/09 03:30:19;;;;;;;1.48;0.50;;;;;;;7.36;93.43;94210.88;5072028;28;20484;-75
2023/03/09 03:32:46;;;;;;;2.10;0.55;;;;;;;7.38;93.37;94238.38;5072181;28;20101;-76
2023/03/09 03:35:12;;;;;;;1.52;0.60;;;;;;;7.46;92.84;94239.31;5072624;28;20063;-75
2023/03/09 03:37:40;;;;;;;0.90;0.20;;;;;;;7.54;91.70;94252.69;5072612;28;20052;-76
2023/03/09 03:40:08;;;;;;;1.08;0.40;;;;;;;7.40;94.56;94236.09;5071952;28;20036;-75
2023/03/09 03:42:35;;;;;;;2.05;0.70;;;;;;;7.22;97.31;94224.06;5072871;28;20128;-73
2023/03/09 03:45:02;;;;;;;2.30;0.75;;;;;;;7.04;99.66;94224.34;5072226;28;20119;-74
2023/03/09 03:47:28;;;;;;;1.42;0.40;;;;;;;6.97;100.00;94221.47;5072556;28;20048;-74
2023/03/09 03:49:54;;;;;;;1.25;0.40;;;;;;;7.03;100.00;94213.88;5072648;28;20040;-74
2023/03/09 03:52:23;;;;;;;1.33;0.50;;;;;;;7.18;100.00;94206.94;5072452;28;20048;-74
2023/03/09 03:54:51;;;;;;;2.40;0.57;;;;;;;7.24;100.00;94200.13;5071927;28;20044;-74
2023/03/09 03:57:18;;;;;;;2.40;0.30;;;;;;;7.38;99.33;94226.75;5071660;28;20044;-76
2023/03/09 03:59:44;;;;;;;0.75;0.35;;;;;;;7.36;100.00;94224.41;5072288;28;20048;-74
2023/03/09 04:02:11;;;;;;;1.50;0.55;;;;;;;7.37;100.00;94203.53;5071144;28;20133;-74
2023/03/09 04:04:37;;;;;;;2.13;0.35;;;;;;;7.39;100.00;94229.13;5072108;28;20051;-74
2023/03/09 04:07:04;;;;;;;0.77;0.47;;;;;;;7.32;100.00;94207.28;5070923;28;20045;-74
2023/03/09 04:09:31;;;;;;;1.75;0.68;;;;;;;7.23;100.00;94214.78;5072063;28;20408;-74
2023/03/09 04:11:59;;;;;;;1.00;0.50;;;;;;;7.20;100.00;94215.47;5071858;28;20125;-75
2023/03/09 04:14:25;;;;;;;1.45;0.57;;;;;;;7.12;100.00;94208.31;5071635;28;20051;-74
2023/03/09 04:16:52;;;;;;;1.50;0.40;;;;;;;7.07;100.00;94210.16;5071560;28;20127;-74
2023/03/09 04:19:18;;;;;;;1.45;0.40;;;;;;;7.14;100.00;94192.50;5071172;28;20067;-75
2023/03/09 04:21:45;;;;;;;2.85;0.68;;;;;;;7.09;100.00;94188.13;5071629;28;20048;-75
2023/03/09 04:24:11;;;;;;;1.52;0.50;;;;;;;7.05;100.00;94193.47;5071335;28;20048;-74
2023/03/09 04:26:37;;;;;;;1.23;0.40;;;;;;;7.12;100.00;94189.38;5071625;28;20384;-74
2023/03/09 04:29:05;;;;;;;1.98;0.68;;;;;;;7.11;100.00;94207.53;5071071;28;20706;-74
2023/03/09 04:31:32;;;;;;;1.35;0.60;;;;;;;7.15;100.00;94196.78;5070043;28;20044;-75
2023/03/09 04:33:58;;;;;;;2.85;0.50;;;;;;;7.28;100.00;94195.59;5071667;28;20427;-73
2023/03/09 04:36:24;;;;;;;1.27;0.70;;;;;;;7.33;100.00;94203.44;5070792;28;20522;-75
2023/03/09 04:38:51;;;;;;;3.45;0.50;;;;;;;7.22;100.00;94191.56;5071197;28;20095;-75
2023/03/09 04:41:17;;;;;;;1.67;0.70;;;;;;;7.30;100.00;94193.31;5070572;28;20051;-75
2023/03/09 04:43:44;;;;;;;1.60;0.38;;;;;;;7.23;100.00;94190.44;5071482;28;20052;-74
2023/03/09 04:46:12;;;;;;;1.90;0.70;;;;;;;7.43;100.00;94208.34;5070890;28;20036;-74
2023/03/09 04:48:38;;;;;;;1.83;0.80;;;;;;;7.33;100.00;94206.94;5071208;28;20041;-75
2023/03/09 04:51:05;;;;;;;1.88;0.70;;;;;;;7.21;100.00;94196.19;5070739;28;20044;-75
2023/03/09 04:53:31;;;;;;;2.17;0.68;;;;;;;7.33;100.00;94198.03;5071353;28;20045;-75
2023/03/09 04:55:58;;;;;;;1.88;0.80;;;;;;;7.38;100.00;94197.75;5071266;28;20048;-74
2023/03/09 04:58:24;;;;;;;2.20;0.70;;;;;;;7.36;100.00;94197.34;5070998;28;20048;-74
2023/03/09 05:00:51;;;;;;;3.25;0.80;;;;;;;7.51;100.00;94193.81;5070395;28;20052;-75
2023/03/09 05:03:19;;;;;;;2.30;0.60;;;;;;;7.57;100.00;94202.47;5070363;28;20036;-75
2023/03/09 05:05:45;;;;;;;1.27;0.40;;;;;;;7.51;100.00;94204.66;5070797;28;20702;-73
2023/03/09 05:08:11;;;;;;;2.53;0.70;;;;;;;7.70;100.00;94200.44;5070697;28;20056;-76
2023/03/09 05:10:38;;;;;;;2.47;0.73;;;;;;;7.70;100.00;94208.56;5070947;28;20048;-73
2023/03/09 05:13:04;;;;;;;2.42;0.73;;;;;;;7.76;100.00;94199.03;5070723;28;20048;-74
2023/03/09 05:15:31;;;;;;;2.70;0.75;;;;;;;7.90;99.00;94215.63;5070741;28;20058;-73
2023/03/09 05:17:57;;;;;;;2.63;0.80;;;;;;;7.92;98.85;94224.19;5070204;28;20044;-74
2023/03/09 05:20:26;;;;;;;2.83;0.80;;;;;;;8.10;96.66;94233.50;5070174;28;20059;-75
2023/03/09 05:22:54;;;;;;;2.40;0.70;;;;;;;8.21;95.21;94241.09;5070334;28;20045;-74
2023/03/09 05:25:20;;;;;;;2.47;0.60;;;;;;;8.24;94.18;94238.44;5050004;28;20075;-73
2023/03/09 05:27:47;;;;;;;1.38;0.70;;;;;;;8.23;94.61;94238.78;5052263;28;20130;-74
2023/03/09 05:30:14;;;;;;;1.65;0.65;;;;;;;8.31;92.24;94254.09;5065245;28;20072;-74
2023/03/09 05:32:40;;;;;;;2.08;0.60;;;;;;;8.33;92.54;94270.78;5070283;28;20040;-74
2023/03/09 05:35:07;;;;;;;2.58;0.40;;;;;;;8.32;92.75;94270.00;5069604;28;20514;-75
2023/03/09 05:37:35;;;;;;;2.35;0.50;;;;;;;8.29;92.52;94286.19;5069966;28;20479;-74
2023/03/09 05:40:04;;;;;;;1.58;0.30;;;;;;;8.30;91.95;94282.31;5069991;28;21135;-75
2023/03/09 05:42:30;;;;;;;1.02;0.38;;;;;;;8.30;91.17;94301.31;5070084;28;20044;-74
2023/03/09 05:44:57;;;;;;;1.50;0.30;;;;;;;8.25;91.68;94285.34;5070289;28;20040;-74
2023/03/09 05:47:24;;;;;;;1.13;0.43;;;;;;;8.24;91.99;94295.38;5070257;28;20512;-74
2023/03/09 05:49:50;;;;;;;1.65;0.40;;;;;;;8.32;91.02;94320.75;5070236;28;20056;-73
2023/03/09 05:52:17;;;;;;;4.05;0.40;;;;;;;8.27;91.90;94321.00;5071197;28;20048;-74
2023/03/09 05:54:45;;;;;;;0.95;0.30;;;;;;;8.16;93.18;94325.41;5072140;28;20044;-74
2023/03/09 05:57:11;;;;;;;0.45;0.35;;;;;;;8.19;92.48;94325.47;5070153;28;20113;-73
2023/03/09 05:59:38;;;;;;;2.35;0.40;;;;;;;8.13;93.89;94342.34;5069469;28;20392;-74
2023/03/09 06:02:05;;;;;;;0.52;0.30;;;;;;;7.93;96.25;94344.97;5064672;28;20051;-74
2023/03/09 06:04:31;;;;;;;2.78;0.30;;;;;;;7.84;97.27;94355.22;5069835;28;20051;-74
2023/03/09 06:06:58;;;;;;;1.95;0.40;;;;;;;7.83;96.60;94357.16;5069662;28;20044;-74
2023/03/09 06:09:25;;;;;;;0.65;0.40;;;;;;;7.92;95.82;94397.63;5069081;28;20047;-73
2023/03/09 06:11:53;;;;;;;2.47;0.55;;;;;;;7.92;95.52;94384.06;5070042;28;20090;-74
2023/03/09 06:14:19;;;;;;;0.90;0.28;;;;;;;7.91;95.80;94396.03;5069521;28;20518;-74
2023/03/09 06:16:46;;;;;;;1.30;0.40;;;;;;;7.91;95.66;94401.47;5069370;28;20037;-73
2023/03/09 06:19:13;;;;;;;0.57;0.20;;;;;;;7.93;95.68;94407.31;5069739;28;20090;-74
2023/03/09 06:21:39;;;;;;;1.92;0.30;;;;;;;7.89;96.10;94409.16;5069931;28;20545;-73
2023/03/09 06:24:06;;;;;;;0.65;0.32;;;;;;;7.90;96.34;94431.63;5068954;28;20044;-74
2023/03/09 06:26:33;;;;;;;1.00;0.35;;;;;;;7.89;96.44;94430.84;5069688;28;20049;-73
2023/03/09 06:29:02;;;;;;;1.73;0.50;;;;;;;7.89;96.10;94447.09;5069720;28;20037;-73
2023/03/09 06:31:28;;;;;;;1.85;0.45;;;;;;;7.87;96.48;94451.28;5069010;28;20044;-73
2023/03/09 06:33:54;;;;;;;2.17;0.30;;;;;;;7.87;96.27;94465.63;5069769;28;20048;-73
2023/03/09 06:36:21;;;;;;;0.45;0.30;;;;;;;7.89;96.11;94466.06;5069025;28;20052;-73
2023/03/09 06:38:47;;;;;;;1.80;0.85;;;;;;;7.89;96.34;94476.13;5069204;28;20618;-73
2023/03/09 06:41:15;;;;;;;1.27;0.40;;;;;;;7.90;96.26;94488.53;5069211;28;20492;-74
2023/03/09 06:43:45;;;;;;;1.27;0.40;;;;;;;7.84;96.82;94493.41;5069504;28;20397;-73
2023/03/09 06:46:12;;;;;;;0.55;0.38;;;;;;;7.90;95.91;94492.03;5068833;28;20040;-73
2023/03/09 06:48:39;;;;;;;1.05;0.30;;;;;;;7.89;96.28;94504.00;5069614;28;20051;-75
2023/03/09 06:51:06;;;;;;;1.23;0.35;;;;;;;7.90;96.00;94502.09;5068934;28;20044;-74
2023/03/09 06:53:32;;;;;;;1.40;0.35;;;;;;;7.90;95.80;94524.56;5070277;28;20037;-74
2023/03/09 06:56:00;;;;;;;0.93;0.30;;;;;;;7.90;95.64;94540.81;5073561;28;20487;-74
2023/03/09 06:58:27;;;;;;;0.90;0.43;;;;;;;7.91;95.43;94553.22;5073006;28;20448;-74
2023/03/09 07:00:53;;;;;;;0.95;0.40;;;;;;;7.94;94.58;94552.56;5073160;28;20044;-75
2023/03/09 07:03:21;;;;;;;2.53;0.60;;;;;;;7.97;93.86;94565.41;5072694;28;20045;-74
2023/03/09 07:05:47;;;;;;;1.98;0.70;;;;;;;7.98;93.38;94582.44;5072962;28;20051;-74
2023/03/09 07:08:14;;;;;;;0.88;0.50;;;;;;;7.98;93.94;94593.28;5072826;28;20050;-75
2023/03/09 07:10:40;;;;;;;3.03;0.73;;;;;;;8.04;90.48;94590.00;5072944;28;20047;-74
2023/03/09 07:13:12;;;;;;;5.53;0.90;;;;;;;8.08;90.17;94607.13;5071752;28;20048;-74
2023/03/09 07:15:39;;;;;;;3.78;0.77;;;;;;;8.14;88.10;94610.41;5070738;28;20423;-74
2023/03/09 07:18:05;;;;;;;3.78;0.90;;;;;;;8.22;88.34;94619.53;5072121;28;20048;-74
2023/03/09 07:20:33;;;;;;;5.18;1.02;;;;;;;8.27;89.11;94624.72;5073031;28;20404;-73
2023/03/09 07:23:00;;;;;;;6.25;1.00;;;;;;;8.35;89.78;94629.19;5072647;28;20044;-74
2023/03/09 07:25:27;;;;;;;3.95;0.73;;;;;;;8.48;89.39;94629.97;5072120;28;20055;-73
2023/03/09 07:27:53;;;;;;;1.70;0.55;;;;;;;8.38;90.45;94641.31;5072168;28;20044;-73
2023/03/09 07:30:20;;;;;;;2.05;0.60;;;;;;;8.34;92.13;94646.59;5071905;28;20127;-75
2023/03/09 07:32:47;;;;;;;2.97;0.60;;;;;;;8.26;92.86;94655.69;5072515;28;20044;-75
2023/03/09 07:35:13;;;;;;;1.15;0.52;;;;;;;8.24;93.22;94663.34;5073281;28;20051;-74
2023/03/09 07:37:41;;;;;;;1.10;0.50;;;;;;;8.22;93.21;94662.91;5073895;28;20047;-75
2023/03/09 07:40:09;;;;;;;5.43;0.77;;;;;;;8.17;93.19;94674.78;5072999;28;20449;-74
2023/03/09 07:42:35;;;;;;;1.95;0.60;;;;;;;8.10;93.35;94680.00;5072123;28;20131;-74
2023/03/09 07:45:02;;;;;;;2.85;0.52;;;;;;;8.06;93.16;94687.25;5072019;28;20041;-75
2023/03/09 07:47:29;;;;;;;1.17;0.50;;;;;;;8.06;93.08;94696.16;5072113;28;20051;-75
2023/03/09 07:49:56;;;;;;;2.28;0.65;;;;;;;8.02;93.21;94689.84;5072001;28;20048;-73
2023/03/09 07:52:24;;;;;;;3.92;0.80;;;;;;;8.06;93.22;94707.00;5071660;28;20106;-73
2023/03/09 07:54:52;;;;;;;2.42;0.40;;;;;;;8.12;93.51;94704.84;5072331;28;20048;-74
2023/03/09 07:57:19;;;;;;;3.22;0.70;;;;;;;8.17;92.52;94709.25;5071638;28;20044;-74
2023/03/09 07:59:46;;;;;;;1.25;0.52;;;;;;;8.18;91.00;94713.53;5071582;28;20575;-72
2023/03/09 08:02:12;;;;;;;1.52;0.57;;;;;;;8.19;91.47;94710.47;5067247;28;20041;-73
2023/03/09 08:04:39;;;;;;;2.30;0.70;;;;;;;8.30;91.20;94722.44;5072136;28;20593;-73
2023/03/09 08:07:05;;;;;;;3.10;0.55;;;;;;;8.51;90.33;94726.91;5071433;28;20048;-73
2023/03/09 08:09:32;;;;;;;3.80;0.70;;;;;;;9.22;84.86;94728.06;5072078;28;20044;-73
2023/03/09 08:11:59;;;;;;;2.92;0.68;;;;;;;9.47;83.81;94745.81;5072174;28;20055;-72
2023/03/09 08:14:26;;;;;;;1.48;0.63;;;;;;;9.92;82.63;94736.41;5071185;28;20051;-73
2023/03/09 08:16:52;;;;;;;1.65;0.70;;;;;;;9.79;80.61;94732.22;5071756;28;20036;-73
2023/03/09 08:19:21;;;;;;;2.90;0.65;;;;;;;10.05;79.61;94747.97;5071336;28;20413;-73
2023/03/09 08:21:48;;;;;;;2.25;0.80;;;;;;;10.05;79.69;94754.19;5071750;28;20054;-73
2023/03/09 08:24:14;;;;;;;1.38;0.70;;;;;;;9.99;81.06;94757.53;5071768;28;20048;-74
2023/03/09 08:26:41;;;;;;;1.15;0.57;;;;;;;9.90;82.09;94761.22;5071237;28;20044;-74
2023/03/09 08:29:09;;;;;;;2.25;0.40;;;;;;;9.61;83.59;94772.56;5070875;28;20047;-74
2023/03/09 08:31:36;;;;;;;4.22;0.60;;;;;;;9.36;82.26;94766.47;5071528;28;20053;-73
2023/03/09 08:34:04;;;;;;;1.42;0.55;;;;;;;9.35;83.02;94773.06;5071164;28;20040;-74
2023/03/09 08:36:31;;;;;;;3.35;0.60;;;;;;;9.40;82.62;94770.09;5071378;28;20071;-73
2023/03/09 08:38:58;;;;;;;1.30;0.55;;;;;;;9.46;80.54;94782.28;5071341;28;20049;-73
2023/03/09 08:41:24;;;;;;;2.05;0.68;;;;;;;9.61;81.97;94786.16;5070645;28;20044;-73
2023/03/09 08:43:51;;;;;;;2.75;0.98;;;;;;;9.80;80.34;94801.75;5071332;28;20177;-72
2023/03/09 08:46:19;;;;;;;3.85;0.60;;;;;;;9.97;78.08;94806.03;5071080;28;20041;-73
2023/03/09 08:48:48;;;;;;;4.70;0.80;;;;;;;9.83;78.86;94795.63;5071060;28;20053;-73
2023/03/09 08:51:14;;;;;;;2.42;0.65;;;;;;;9.94;79.04;94799.38;5070662;28;20036;-73
2023/03/09 08:53:41;;;;;;;3.97;0.93;;;;;;;9.90;78.05;94801.22;5071233;28;20124;-73
2023/03/09 08:56:10;;;;;;;2.53;0.60;;;;;;;9.90;79.88;94814.81;5070567;28;20072;-73
2023/03/09 08:58:37;;;;;;;2.90;0.60;;;;;;;9.91;78.99;94811.72;5071849;28;20131;-73
2023/03/09 09:01:07;;;;;;;2.28;0.80;;;;;;;10.38;76.74;94815.59;5063847;28;20051;-74
2023/03/09 09:03:38;;;;;;;2.95;0.75;;;;;;;10.51;75.41;94819.00;5070929;28;20052;-73
2023/03/09 09:06:07;;;;;;;5.32;1.88;;;;;;;10.62;76.01;94822.75;5070545;28;20040;-74
2023/03/09 09:08:33;;;;;;;3.60;0.52;;;;;;;10.45;76.53;94821.22;5070980;28;20051;-72
2023/03/09 09:11:00;;;;;;;2.40;0.68;;;;;;;10.29;76.23;94815.81;5070653;28;20051;-73
2023/03/09 09:13:26;;;;;;;4.13;0.82;;;;;;;10.29;77.88;94829.41;5070110;28;20496;-73
2023/03/09 09:15:53;;;;;;;3.35;0.90;;;;;;;10.35;73.29;94821.75;5070804;28;20045;-73
2023/03/09 09:18:20;;;;;;;6.15;0.70;;;;;;;10.91;70.90;94837.75;5070555;28;20048;-72
2023/03/09 09:20:48;;;;;;;4.22;0.93;;;;;;;10.57;71.54;94834.69;5071299;28;20527;-73
2023/03/09 09:23:15;;;;;;;5.65;0.80;;;;;;;10.46;73.07;94828.22;5070370;28;20043;-72
2023/03/09 09:25:41;;;;;;;2.60;0.80;;;;;;;10.59;71.31;94829.69;5070916;28;20524;-73
2023/03/09 09:28:08;;;;;;;2.47;0.60;;;;;;;11.42;70.70;94826.72;5069942;28;20044;-73
2023/03/09 09:30:35;;;;;;;8.95;0.90;;;;;;;11.61;67.17;94837.63;5070066;28;20511;-72
2023/03/09 09:33:04;;;;;;;4.95;0.73;;;;;;;11.10;66.79;94845.94;5077187;28;20045;-73
2023/03/09 09:35:31;;;;;;;3.75;0.57;;;;;;;10.78;69.30;94839.03;5070913;28;20127;-73
2023/03/09 09:37:59;;;;;;;4.55;0.90;;;;;;;10.51;70.66;94841.56;5070312;28;20043;-72
2023/03/09 09:40:26;;;;;;;6.47;1.00;;;;;;;10.45;71.30;94849.22;5069818;28;20043;-72
2023/03/09 09:42:54;;;;;;;4.38;1.15;;;;;;;10.30;69.02;94849.22;5070118;28;20043;-72
2023/03/09 09:45:32;;;;;;;3.65;0.82;;;;;;;10.25;70.50;94844.06;5069633;28;20053;-72
2023/03/09 09:48:02;;;;;;;4.70;0.90;;;;;;;10.32;68.40;94855.09;5070284;28;20135;-73
2023/03/09 09:50:40;;;;;;;5.28;1.10;;;;;;;10.34;68.79;94848.19;5070091;28;20055;-73
2023/03/09 09:53:15;;;;;;;3.83;0.90;;;;;;;10.38;67.33;94842.81;5070084;28;20040;-73
2023/03/09 09:55:43;;;;;;;2.80;1.00;;;;;;;10.68;67.60;94852.06;5069978;28;20044;-72
2023/03/09 09:58:24;;;;;;;4.30;0.95;;;;;;;10.81;66.85;94851.97;5069793;28;20045;-72
2023/03/09 10:00:54;;;;;;;3.28;0.70;;;;;;;10.92;67.35;94869.31;5062856;28;20051;-73
2023/03/09 10:03:25;;;;;;;4.30;0.80;;;;;;;11.10;63.98;94864.22;5069554;28;20040;-73
2023/03/09 10:05:56;;;;;;;4.88;0.80;;;;;;;11.53;63.52;94852.25;5067527;28;20072;-72
2023/03/09 10:08:30;;;;;;;3.42;0.80;;;;;;;11.95;61.68;94865.94;5059320;28;20514;-73
2023/03/09 10:11:03;;;;;;;3.65;0.82;;;;;;;12.23;60.62;94848.47;5069726;28;20052;-72
2023/03/09 10:13:34;;;;;;;3.42;0.85;;;;;;;11.84;62.42;94867.66;5069270;28;20039;-73
2023/03/09 10:16:04;;;;;;;6.55;1.00;;;;;;;11.86;61.01;94870.03;5069497;28;20048;-72
2023/03/09 10:18:35;;;;;;;4.05;0.88;;;;;;;12.04;61.98;94871.13;5069592;28;20041;-72
2023/03/09 10:21:04;;;;;;;4.78;0.95;;;;;;;11.55;61.36;94879.94;5069289;28;20051;-74
2023/03/09 10:23:34;;;;;;;6.30;1.15;;;;;;;11.27;62.37;94865.75;5069775;28;20047;-72
2023/03/09 10:26:16;;;;;;;3.83;0.98;;;;;;;11.27;64.51;94873.91;5069377;28;20045;-73
2023/03/09 10:28:45;;;;;;;3.05;0.80;;;;;;;11.32;63.10;94874.41;5070981;28;20040;-72
2023/03/09 10:31:18;;;;;;;3.78;0.80;;;;;;;11.12;63.79;94875.56;5073078;28;20037;-72
2023/03/09 10:33:49;;;;;;;4.95;1.08;;;;;;;10.99;61.96;94883.06;5073784;28;20044;-72
2023/03/09 10:36:20;;;;;;;2.47;0.82;;;;;;;10.91;63.00;94873.97;5073240;28;20056;-74
2023/03/09 10:38:49;;;;;;;3.05;0.82;;;;;;;10.81;62.91;94884.63;5073569;28;20736;-74
2023/03/09 10:41:18;;;;;;;3.45;0.60;;;;;;;10.87;61.64;94885.94;5073119;28;20037;-73
2023/03/09 10:43:45;;;;;;;2.33;0.68;;;;;;;10.89;62.22;94894.53;5073188;28;20037;-73
2023/03/09 10:46:16;;;;;;;4.45;0.80;;;;;;;10.94;62.35;94907.88;5072944;28;20514;-72
2023/03/09 10:48:44;;;;;;;3.50;0.77;;;;;;;10.76;63.92;94904.75;5073619;28;20492;-72
2023/03/09 10:51:27;;;;;;;2.45;0.80;;;;;;;10.71;64.05;94900.38;5072954;28;20133;-74
2023/03/09 10:53:56;;;;;;;2.60;0.90;;;;;;;10.64;64.13;94900.19;5073485;28;20510;-73
2023/03/09 10:56:24;;;;;;;1.85;0.70;;;;;;;10.64;62.84;94892.00;5072339;28;20274;-72
2023/03/09 10:59:13;;;;;;;2.42;0.57;;;;;;;10.70;64.17;94904.22;5073079;28;20515;-73
2023/03/09 11:01:41;;;;;;;1.80;0.60;;;;;;;10.94;62.72;94891.53;5072927;28;20037;-72
2023/03/09 11:04:31;;;;;;;1.60;0.50;;;;;;;11.02;61.32;94919.72;5072596;28;20037;-72
2023/03/09 11:06:59;;;;;;;2.15;0.60;;;;;;;10.97;62.24;94897.06;5073132;28;20067;-72
2023/03/09 11:09:31;;;;;;;2.53;0.70;;;;;;;11.41;60.33;94890.56;5072266;28;20094;-72
2023/03/09 11:12:10;;;;;;;4.53;0.63;;;;;;;11.60;61.37;94893.28;5073286;28;20455;-72
2023/03/09 11:14:44;;;;;;;1.58;0.40;;;;;;;11.56;60.32;94894.38;5073017;28;20051;-72
2023/03/09 11:17:34;;;;;;;2.38;0.60;;;;;;;11.81;60.45;94930.31;5072147;28;20041;-72
2023/03/09 11:20:22;;;;;;;1.00;0.50;;;;;;;12.25;61.02;94898.78;5072950;28;20044;-72
2023/03/09 11:22:53;;;;;;;3.42;0.50;;;;;;;12.61;60.67;94893.91;5073313;28;20143;-74
2023/03/09 11:25:34;;;;;;;2.67;0.50;;;;;;;12.13;57.73;94909.09;5072252;28;20052;-71
2023/03/09 11:28:04;;;;;;;1.83;0.55;;;;;;;11.85;58.64;94907.44;5072792;28;20127;-71
2023/03/09 11:30:31;;;;;;;4.53;0.70;;;;;;;11.64;59.29;94896.88;5065005;28;20037;-71
2023/03/09 11:32:58;;;;;;;2.85;0.63;;;;;;;11.50;60.88;94902.06;5072058;28;20043;-72
2023/03/09 11:35:24;;;;;;;3.55;0.60;;;;;;;12.28;59.64;94903.53;5072584;28;20657;-72
2023/03/09 11:37:56;;;;;;;1.92;0.50;;;;;;;12.39;58.36;94892.78;5072960;28;20048;-72
2023/03/09 11:40:29;;;;;;;1.77;0.73;;;;;;;12.48;59.15;94895.28;5072276;28;20051;-77
2023/03/09 11:43:00;;;;;;;3.85;0.77;;;;;;;12.37;58.68;94900.56;5073205;28;20508;-72